Terminal Aerodrome Forecast
Issued by NWS

Home | Current Version | Previous Version | Graphics & Text | Print | Product List | Glossary On
Versions: 1 2 3 4 5 6 7 8 9 10 11 12 13 14 15
874
FTUS43 KMPX 252342
TAFRWF
TAF
KRWF 252342Z 2600/2624 29010KT P6SM FEW050
     FM260600 29003KT P6SM SKC
     FM261600 15005KT P6SM SCT250=

USA.gov is the U.S. government's official web portal to all federal, state and local government web resources and services.